createdAt,value
2016-04-14T00:00:50.564Z,0
2016-04-14T00:01:22.267Z,0
2016-04-14T00:02:15.972Z,0
2016-04-14T00:03:28.710Z,0
2016-04-14T00:04:03.274Z,0
2016-04-14T00:05:03.418Z,0
2016-04-14T00:06:16.046Z,0
2016-04-14T00:07:03.330Z,0
2016-04-14T00:08:22.394Z,0
2016-04-14T00:09:09.661Z,0
2016-04-14T00:11:13.088Z,0
2016-04-14T00:11:25.541Z,0
2016-04-14T00:13:31.953Z,0
2016-04-14T00:14:38.424Z,0
2016-04-14T00:15:38.458Z,0
2016-04-14T00:16:25.868Z,0
2016-04-14T00:17:38.479Z,0
2016-04-14T00:18:25.904Z,0
2016-04-14T00:19:25.782Z,0
2016-04-14T00:20:25.832Z,0
2016-04-14T00:21:38.568Z,0
2016-04-14T00:22:32.149Z,0
2016-04-14T00:23:25.871Z,0
2016-04-14T00:24:26.592Z,0
2016-04-14T00:25:26.923Z,0
2016-04-14T00:26:26.534Z,0
2016-04-14T00:27:25.929Z,0
2016-04-14T00:28:25.962Z,0
2016-04-14T00:29:26.167Z,0
2016-04-14T00:30:32.249Z,0
2016-04-14T00:31:26.033Z,0
2016-04-14T00:32:26.019Z,0
2016-04-14T00:33:26.289Z,0
2016-04-14T00:34:32.541Z,0
2016-04-14T00:35:32.356Z,0
2016-04-14T00:36:45.366Z,0
2016-04-14T00:37:26.165Z,0
2016-04-14T00:38:45.340Z,0
2016-04-14T00:39:26.155Z,0
2016-04-14T00:40:26.235Z,0
2016-04-14T00:41:32.473Z,0
2016-04-14T00:42:26.835Z,0
2016-04-14T00:43:45.525Z,0
2016-04-14T00:44:26.246Z,0
2016-04-14T00:45:57.565Z,0
2016-04-14T00:46:26.330Z,0
2016-04-14T00:47:26.302Z,0
2016-04-14T00:48:26.320Z,0
2016-04-14T00:49:39.073Z,0
2016-04-14T00:50:26.513Z,0
2016-04-14T00:51:45.578Z,0
2016-04-14T00:52:27.830Z,0
2016-04-14T00:53:26.428Z,0
2016-04-14T00:54:26.430Z,0
2016-04-14T00:55:32.761Z,0
2016-04-14T00:56:32.731Z,0
2016-04-14T00:57:27.953Z,0
2016-04-14T00:58:39.253Z,0
2016-04-14T00:59:29.771Z,0
2016-04-14T01:01:17.105Z,0
2016-04-14T01:01:42.402Z,0
2016-04-14T01:02:29.701Z,0
2016-04-14T01:03:48.266Z,0
2016-04-14T01:04:42.582Z,0
2016-04-14T01:05:48.994Z,0
2016-04-14T01:08:04.999Z,0
2016-04-14T01:09:30.766Z,0
2016-04-14T01:10:14.676Z,0
2016-04-14T01:10:55.851Z,0
2016-04-14T01:12:43.462Z,0
2016-04-14T01:13:44.840Z,0
2016-04-14T01:14:43.405Z,0
2016-04-14T01:16:02.645Z,0
2016-04-14T01:16:43.535Z,0
2016-04-14T01:18:09.154Z,0
2016-04-14T01:18:43.972Z,0
2016-04-14T01:19:43.506Z,0
2016-04-14T01:20:43.556Z,0
2016-04-14T01:21:44.950Z,0
2016-04-14T01:22:43.546Z,0
2016-04-14T01:23:56.411Z,0
2016-04-14T01:24:49.882Z,0
2016-04-14T01:25:56.572Z,0
2016-04-14T01:26:56.372Z,0
2016-04-14T01:27:43.606Z,0
2016-04-14T01:28:44.249Z,0
2016-04-14T01:29:56.411Z,0
2016-04-14T01:30:43.677Z,0
2016-04-14T01:32:34.199Z,0
2016-04-14T01:32:46.714Z,0
2016-04-14T01:33:46.810Z,0
2016-04-14T01:34:46.922Z,0
2016-04-14T01:35:48.221Z,0
2016-04-14T01:36:47.021Z,0
2016-04-14T01:37:49.901Z,0
2016-04-14T01:38:59.623Z,0
2016-04-14T01:39:46.904Z,0
2016-04-14T01:40:47.532Z,0
2016-04-14T01:41:59.709Z,0
2016-04-14T01:42:48.381Z,0
2016-04-14T01:44:37.481Z,0
2016-04-14T01:44:56.326Z,0
2016-04-14T01:45:50.189Z,0
2016-04-14T01:46:56.941Z,0
2016-04-14T01:47:50.084Z,0
2016-04-14T01:48:50.103Z,0
2016-04-14T01:49:50.153Z,0
2016-04-14T01:50:50.139Z,0
2016-04-14T01:51:50.173Z,0
2016-04-14T01:52:50.192Z,0
2016-04-14T01:53:56.460Z,0
2016-04-14T01:54:56.744Z,0
2016-04-14T01:56:02.949Z,0
2016-04-14T01:56:50.469Z,0
2016-04-14T01:57:50.268Z,0
2016-04-14T01:58:50.317Z,0
2016-04-14T01:59:56.602Z,0
2016-04-14T02:00:50.666Z,0
2016-04-14T02:02:03.091Z,0
2016-04-14T02:03:03.078Z,0
2016-04-14T02:04:09.580Z,0
2016-04-14T02:05:03.146Z,0
2016-04-14T02:05:50.414Z,0
2016-04-14T02:06:56.698Z,0
2016-04-14T02:07:50.451Z,0
2016-04-14T02:09:03.219Z,0
2016-04-14T02:09:56.753Z,0
2016-04-14T02:11:09.928Z,0
2016-04-14T02:11:50.586Z,0
2016-04-14T02:13:41.870Z,0
2016-04-14T02:13:54.576Z,0
2016-04-14T02:14:54.485Z,0
2016-04-14T02:16:00.738Z,0
2016-04-14T02:16:54.538Z,0
2016-04-14T02:18:06.618Z,0
2016-04-14T02:18:54.558Z,0
2016-04-14T02:19:54.578Z,0
2016-04-14T02:20:56.017Z,0
2016-04-14T02:21:54.598Z,0
2016-04-14T02:23:07.476Z,0
2016-04-14T02:24:07.369Z,0
2016-04-14T02:25:13.841Z,0
2016-04-14T02:25:54.671Z,0
2016-04-14T02:26:54.846Z,0
2016-04-14T02:27:54.691Z,0
2016-04-14T02:29:07.461Z,0
2016-04-14T02:30:01.150Z,0
2016-04-14T02:30:54.856Z,0
2016-04-14T02:32:07.328Z,0
2016-04-14T02:33:07.533Z,0
2016-04-14T02:33:54.802Z,0
2016-04-14T02:35:14.055Z,0
2016-04-14T02:35:56.291Z,0
2016-04-14T02:36:54.873Z,0
2016-04-14T02:38:14.079Z,0
2016-04-14T02:38:54.924Z,0
2016-04-14T02:40:20.568Z,0
2016-04-14T02:40:54.930Z,0
2016-04-14T02:42:26.245Z,0
2016-04-14T02:43:01.279Z,0
2016-04-14T02:45:07.753Z,0
2016-04-14T02:45:55.865Z,0
2016-04-14T02:47:07.743Z,0
2016-04-14T02:47:55.058Z,0
2016-04-14T02:49:58.861Z,0
2016-04-14T02:52:08.164Z,0
2016-04-14T02:53:33.853Z,0
2016-04-14T02:54:21.028Z,0
2016-04-14T02:55:33.921Z,0
2016-04-14T02:56:27.549Z,0
2016-04-14T02:57:08.255Z,0
2016-04-14T02:59:05.291Z,0
2016-04-14T02:59:17.853Z,0
2016-04-14T03:00:43.544Z,0
2016-04-14T03:01:24.797Z,0
2016-04-14T03:02:18.002Z,0
2016-04-14T03:03:19.364Z,0
2016-04-14T03:04:18.023Z,0
2016-04-14T03:05:19.386Z,0
2016-04-14T03:06:30.716Z,0
2016-04-14T03:07:30.734Z,0
2016-04-14T03:08:37.238Z,0
2016-04-14T03:09:43.584Z,0
2016-04-14T03:10:18.071Z,0
2016-04-14T03:11:49.464Z,0
2016-04-14T03:12:18.092Z,0
2016-04-14T03:13:18.422Z,0
2016-04-14T03:14:18.129Z,0
2016-04-14T03:15:31.006Z,0
2016-04-14T03:16:18.164Z,0
2016-04-14T03:17:37.387Z,0
2016-04-14T03:18:18.342Z,0
2016-04-14T03:19:18.361Z,0
2016-04-14T03:20:24.707Z,0
2016-04-14T03:21:25.209Z,0
2016-04-14T03:22:37.540Z,0
2016-04-14T03:23:37.497Z,0
2016-04-14T03:24:37.592Z,0
2016-04-14T03:25:43.533Z,0
2016-04-14T03:26:18.551Z,0
2016-04-14T03:27:18.428Z,0
2016-04-14T03:28:18.542Z,0
2016-04-14T03:29:31.309Z,0
2016-04-14T03:30:18.641Z,0
2016-04-14T03:32:08.974Z,0
2016-04-14T03:32:21.536Z,0
2016-04-14T03:34:13.026Z,0
2016-04-14T03:34:25.604Z,0
2016-04-14T03:36:17.046Z,0
2016-04-14T03:36:29.593Z,0
2016-04-14T03:38:26.599Z,0
2016-04-14T03:38:39.162Z,0
2016-04-14T03:40:10.510Z,0
2016-04-14T03:40:51.998Z,0
2016-04-14T03:41:39.279Z,0
2016-04-14T03:42:58.534Z,0
2016-04-14T03:43:39.253Z,0
2016-04-14T03:46:14.604Z,0
2016-04-14T03:48:24.298Z,0
2016-04-14T03:50:34.085Z,0
2016-04-14T03:51:34.181Z,0
2016-04-14T03:52:41.153Z,0
2016-04-14T03:53:39.873Z,0
2016-04-14T03:54:08.580Z,0
2016-04-14T03:55:08.614Z,0
2016-04-14T03:56:08.648Z,0
2016-04-14T03:57:08.681Z,0
2016-04-14T03:58:08.621Z,0
2016-04-14T03:59:08.843Z,0
2016-04-14T04:00:08.658Z,0
2016-04-14T04:01:14.849Z,0
2016-04-14T04:02:21.319Z,0
2016-04-14T04:03:21.354Z,0
2016-04-14T04:04:34.591Z,0
2016-04-14T04:05:28.015Z,0
2016-04-14T04:06:40.080Z,0
2016-04-14T04:08:05.476Z,0
2016-04-14T04:08:49.367Z,0
2016-04-14T04:09:30.683Z,0
2016-04-14T04:12:15.066Z,0
2016-04-14T04:12:27.613Z,0
2016-04-14T04:14:18.196Z,0
2016-04-14T04:14:33.805Z,0
2016-04-14T04:15:49.965Z,0
2016-04-14T04:16:49.982Z,0
2016-04-14T04:17:30.876Z,0
2016-04-14T04:18:30.848Z,0
2016-04-14T04:19:30.865Z,0
2016-04-14T04:20:30.978Z,0
2016-04-14T04:21:32.340Z,0
2016-04-14T04:22:30.921Z,0
2016-04-14T04:23:30.923Z,0
2016-04-14T04:24:31.098Z,0
2016-04-14T04:25:43.694Z,0
2016-04-14T04:26:37.244Z,0
2016-04-14T04:27:30.997Z,0
2016-04-14T04:28:50.218Z,0
2016-04-14T04:29:31.064Z,0
2016-04-14T04:30:31.035Z,0
2016-04-14T04:31:31.070Z,0
2016-04-14T04:32:31.103Z,0
2016-04-14T04:33:31.106Z,0
2016-04-14T04:34:37.391Z,0
2016-04-14T04:35:31.158Z,0
2016-04-14T04:36:31.177Z,0
2016-04-14T04:37:31.258Z,0
2016-04-14T04:38:43.932Z,0
2016-04-14T04:39:31.294Z,5
2016-04-14T04:40:31.218Z,5
2016-04-14T04:41:31.831Z,5
2016-04-14T04:42:37.552Z,5
2016-04-14T04:43:44.040Z,10
2016-04-14T04:44:44.042Z,5
2016-04-14T04:45:50.545Z,5
2016-04-14T04:46:50.516Z,5
2016-04-14T04:47:31.347Z,10
2016-04-14T04:48:31.350Z,10
2016-04-14T04:49:31.384Z,10
2016-04-14T04:50:32.026Z,10
2016-04-14T04:51:31.420Z,15
2016-04-14T04:52:31.548Z,15
2016-04-14T04:53:31.473Z,20
2016-04-14T04:54:32.162Z,20
2016-04-14T04:55:31.509Z,20
2016-04-14T04:56:44.278Z,25
2016-04-14T04:57:31.389Z,30
2016-04-14T04:58:57.238Z,30
2016-04-14T04:59:37.894Z,30
2016-04-14T05:00:31.600Z,35
2016-04-14T05:01:32.245Z,40
2016-04-14T05:02:31.622Z,40
2016-04-14T05:03:31.733Z,45
2016-04-14T05:04:32.237Z,45
2016-04-14T05:05:31.692Z,45
2016-04-14T05:06:31.695Z,45
2016-04-14T05:07:37.979Z,45
2016-04-14T05:08:44.325Z,45
2016-04-14T05:09:32.015Z,45
2016-04-14T05:11:28.771Z,50
2016-04-14T05:12:06.993Z,50
2016-04-14T05:12:42.102Z,55
2016-04-14T05:14:44.057Z,65
2016-04-14T05:15:15.885Z,70
2016-04-14T05:15:56.744Z,70
2016-04-14T05:16:56.808Z,65
2016-04-14T05:17:56.908Z,70
2016-04-14T05:18:57.490Z,70
2016-04-14T05:20:03.180Z,65
2016-04-14T05:21:03.324Z,65
2016-04-14T05:22:03.515Z,65
2016-04-14T05:23:09.750Z,65
2016-04-14T05:24:16.258Z,65
2016-04-14T05:25:16.250Z,70
2016-04-14T05:26:28.399Z,75
2016-04-14T05:27:16.501Z,80
2016-04-14T05:29:19.014Z,85
2016-04-14T05:29:50.577Z,85
2016-04-14T05:30:31.612Z,85
2016-04-14T05:32:35.373Z,95
2016-04-14T05:33:07.127Z,95
2016-04-14T05:34:00.708Z,100
2016-04-14T05:35:50.603Z,110
2016-04-14T05:36:09.716Z,110
2016-04-14T05:37:03.250Z,115
2016-04-14T05:38:09.894Z,115
2016-04-14T05:39:09.553Z,120
2016-04-14T05:40:04.681Z,120
2016-04-14T05:41:16.261Z,115
2016-04-14T05:42:03.311Z,105
2016-04-14T05:43:22.548Z,85
2016-04-14T05:44:03.535Z,75
2016-04-14T05:45:29.038Z,70
2016-04-14T05:46:16.104Z,70
2016-04-14T05:47:34.685Z,65
2016-04-14T05:48:16.202Z,65
2016-04-14T05:50:03.458Z,75
2016-04-14T05:51:09.804Z,80
2016-04-14T05:52:09.760Z,80
2016-04-14T05:53:22.748Z,85
2016-04-14T05:54:22.718Z,85
2016-04-14T05:55:22.737Z,80
2016-04-14T05:56:29.255Z,75
2016-04-14T05:57:56.354Z,80
2016-04-14T05:58:40.432Z,80
2016-04-14T05:59:08.967Z,80
2016-04-14T06:00:40.907Z,75
2016-04-14T06:01:21.737Z,75
2016-04-14T06:02:09.725Z,75
2016-04-14T06:03:34.571Z,80
2016-04-14T06:04:10.527Z,85
2016-04-14T06:05:09.076Z,90
2016-04-14T06:06:09.078Z,95
2016-04-14T06:07:21.816Z,105
2016-04-14T06:08:21.849Z,105
2016-04-14T06:10:25.324Z,115
2016-04-14T06:11:09.232Z,120
2016-04-14T06:12:09.219Z,120
2016-04-14T06:13:09.894Z,120
2016-04-14T06:14:40.568Z,120
2016-04-14T06:14:53.131Z,120
2016-04-14T06:15:53.196Z,120
2016-04-14T06:16:53.796Z,120
2016-04-14T06:18:05.985Z,115
2016-04-14T06:19:05.943Z,120
2016-04-14T06:20:18.913Z,125
2016-04-14T06:20:53.273Z,130
2016-04-14T06:22:43.778Z,145
2016-04-14T06:22:56.343Z,145
2016-04-14T06:25:00.380Z,160
2016-04-14T06:25:13.068Z,155
2016-04-14T06:26:13.024Z,170
2016-04-14T06:27:13.135Z,180
2016-04-14T06:28:19.873Z,195
2016-04-14T06:29:14.423Z,215
2016-04-14T06:30:32.253Z,230
2016-04-14T06:31:13.053Z,240
2016-04-14T06:33:15.698Z,260
2016-04-14T06:33:53.919Z,265
2016-04-14T06:34:28.294Z,270
2016-04-14T06:35:59.659Z,295
2016-04-14T06:36:41.081Z,315
2016-04-14T06:37:28.333Z,340
2016-04-14T06:39:53.889Z,395
2016-04-14T06:42:31.894Z,590
2016-04-14T06:44:03.665Z,650
2016-04-14T06:44:44.509Z,655
2016-04-14T06:45:50.840Z,570
2016-04-14T06:46:44.780Z,630
2016-04-14T06:48:03.754Z,455
2016-04-14T06:48:44.582Z,425
2016-04-14T06:50:41.759Z,420
2016-04-14T06:51:41.403Z,435
2016-04-14T06:52:51.343Z,405
2016-04-14T06:53:19.674Z,405
2016-04-14T06:54:03.927Z,420
2016-04-14T06:56:06.557Z,495
2016-04-14T06:56:44.885Z,505
2016-04-14T06:57:19.185Z,520
2016-04-14T06:59:21.785Z,485
2016-04-14T06:59:34.379Z,485
2016-04-14T07:00:34.381Z,565
2016-04-14T07:01:47.118Z,440
2016-04-14T07:02:34.434Z,425
2016-04-14T07:03:53.639Z,505
2016-04-14T07:04:34.674Z,465
2016-04-14T07:06:31.752Z,430
2016-04-14T07:07:06.974Z,435
2016-04-14T07:07:57.476Z,465
2016-04-14T07:09:10.286Z,570
2016-04-14T07:11:50.204Z,505
2016-04-14T07:12:18.394Z,495
2016-04-14T07:13:59.454Z,565
2016-04-14T07:14:37.235Z,515
2016-04-14T07:15:24.643Z,665
2016-04-14T07:17:14.413Z,385
2016-04-14T07:17:46.442Z,385
2016-04-14T07:18:29.554Z,395
2016-04-14T07:20:24.013Z,405
2016-04-14T07:20:36.607Z,405
2016-04-14T07:22:33.596Z,475
2016-04-14T07:23:08.442Z,460
2016-04-14T07:24:43.179Z,385
2016-04-14T07:25:52.729Z,385
2016-04-14T07:26:49.450Z,380
2016-04-14T07:27:55.345Z,385
2016-04-14T07:28:14.220Z,385
2016-04-14T07:29:20.661Z,375
2016-04-14T07:30:20.695Z,355
2016-04-14T07:31:20.932Z,345
2016-04-14T07:32:27.216Z,320
2016-04-14T07:33:20.781Z,305
2016-04-14T07:35:23.442Z,310
2016-04-14T07:35:55.211Z,320
2016-04-14T07:36:36.024Z,335
2016-04-14T07:38:34.467Z,370
2016-04-14T07:39:38.173Z,430
2016-04-14T07:39:50.751Z,435
2016-04-14T07:41:47.741Z,485
2016-04-14T07:42:29.041Z,510
2016-04-14T07:43:00.355Z,535
2016-04-14T07:45:09.252Z,575
2016-04-14T07:45:21.877Z,585
2016-04-14T07:46:21.910Z,635
2016-04-14T07:47:28.147Z,700
2016-04-14T07:48:28.149Z,885
2016-04-14T07:49:41.137Z,810
2016-04-14T07:50:34.687Z,745
2016-04-14T07:51:42.579Z,750
2016-04-14T07:52:34.911Z,740
2016-04-14T07:53:47.788Z,645
2016-04-14T07:54:41.198Z,570
2016-04-14T07:55:54.013Z,515
2016-04-14T07:56:42.031Z,520
2016-04-14T07:57:53.424Z,540
2016-04-14T07:59:19.164Z,540
2016-04-14T07:59:57.400Z,520
2016-04-14T08:00:50.978Z,500
2016-04-14T08:02:03.109Z,450
2016-04-14T08:02:31.781Z,445
2016-04-14T08:03:31.862Z,470
2016-04-14T08:04:38.740Z,495
2016-04-14T08:05:38.383Z,495
2016-04-14T08:06:32.136Z,480
2016-04-14T08:07:44.748Z,455
2016-04-14T08:08:32.116Z,470
2016-04-14T08:09:33.521Z,480
2016-04-14T08:10:33.465Z,525
2016-04-14T08:11:41.593Z,555
2016-04-14T08:12:44.767Z,570
2016-04-14T08:13:51.676Z,580
2016-04-14T08:16:07.294Z,630
2016-04-14T08:17:00.953Z,635
2016-04-14T08:18:44.315Z,640
2016-04-14T08:19:09.614Z,640
2016-04-14T08:19:56.914Z,645
2016-04-14T08:21:16.244Z,650
2016-04-14T08:21:56.997Z,650
2016-04-14T08:24:00.221Z,630
2016-04-14T08:24:12.799Z,625
2016-04-14T08:25:12.833Z,585
2016-04-14T08:26:25.570Z,525
2016-04-14T08:27:19.135Z,455
2016-04-14T08:28:32.107Z,420
2016-04-14T08:29:12.907Z,425
2016-04-14T08:30:38.019Z,430
2016-04-14T08:31:19.334Z,455
2016-04-14T08:32:13.009Z,495
2016-04-14T08:33:25.965Z,515
2016-04-14T08:34:13.107Z,515
2016-04-14T08:35:14.610Z,525
2016-04-14T08:36:13.690Z,520
2016-04-14T08:37:32.358Z,540
2016-04-14T08:38:25.892Z,565
2016-04-14T08:39:44.520Z,605
2016-04-14T08:40:25.913Z,615
2016-04-14T08:42:19.575Z,640
2016-04-14T08:43:13.328Z,650
2016-04-14T08:44:13.283Z,645
2016-04-14T08:45:13.301Z,620
2016-04-14T08:46:13.944Z,575
2016-04-14T08:47:13.385Z,530
2016-04-14T08:48:13.856Z,490
2016-04-14T08:49:26.140Z,485
2016-04-14T08:50:13.549Z,490
2016-04-14T08:51:32.488Z,490
2016-04-14T08:52:13.679Z,500
2016-04-14T08:53:39.182Z,505
2016-04-14T08:54:26.310Z,515
2016-04-14T08:55:39.344Z,530
2016-04-14T08:56:26.346Z,520
2016-04-14T08:57:13.615Z,500
2016-04-14T08:58:13.664Z,485
2016-04-14T08:59:14.260Z,480
2016-04-14T09:00:26.513Z,480
2016-04-14T09:01:13.751Z,480
2016-04-14T09:03:04.241Z,490
2016-04-14T09:03:42.554Z,490
2016-04-14T09:04:16.837Z,490
2016-04-14T09:06:31.405Z,490
2016-04-14T09:07:44.829Z,490
2016-04-14T09:08:32.301Z,485
2016-04-14T09:09:32.162Z,480
2016-04-14T09:10:44.915Z,480
2016-04-14T09:11:33.683Z,480
2016-04-14T09:12:32.217Z,485
2016-04-14T09:14:38.394Z,475
2016-04-14T09:15:54.572Z,470
2016-04-14T09:16:42.275Z,470
2016-04-14T09:17:35.403Z,470
2016-04-14T09:18:36.015Z,475
2016-04-14T09:19:48.080Z,480
2016-04-14T09:20:48.270Z,485
2016-04-14T09:21:35.491Z,490
2016-04-14T09:22:35.588Z,490
2016-04-14T09:23:48.293Z,490
2016-04-14T09:24:36.249Z,495
2016-04-14T09:25:48.346Z,510
2016-04-14T09:26:48.349Z,545
2016-04-14T09:27:35.773Z,560
2016-04-14T09:28:54.904Z,530
2016-04-14T09:29:48.419Z,505
2016-04-14T09:30:35.735Z,490
2016-04-14T09:31:35.878Z,480
2016-04-14T09:32:35.787Z,470
2016-04-14T09:33:36.384Z,445
2016-04-14T09:34:36.432Z,450
2016-04-14T09:35:37.264Z,470
2016-04-14T09:36:35.845Z,490
2016-04-14T09:37:55.179Z,530
2016-04-14T09:38:35.898Z,530
2016-04-14T09:40:01.653Z,495
2016-04-14T09:40:42.340Z,475
2016-04-14T09:42:34.876Z,470
2016-04-14T09:42:48.642Z,475
2016-04-14T09:43:47.597Z,455
2016-04-14T09:45:00.275Z,425
2016-04-14T09:46:00.402Z,410
2016-04-14T09:47:13.264Z,395
2016-04-14T09:48:07.049Z,400
2016-04-14T09:50:09.460Z,425
2016-04-14T09:50:22.038Z,425
2016-04-14T09:51:21.947Z,460
2016-04-14T09:52:34.841Z,485
2016-04-14T09:53:22.187Z,495
2016-04-14T09:54:23.580Z,495
2016-04-14T09:55:28.426Z,530
2016-04-14T09:56:28.460Z,575
2016-04-14T09:57:22.198Z,610
2016-04-14T09:58:34.951Z,620
2016-04-14T09:59:35.015Z,610
2016-04-14T10:00:35.237Z,585
2016-04-14T10:01:41.521Z,545
2016-04-14T10:02:35.055Z,495
2016-04-14T10:04:32.529Z,455
2016-04-14T10:05:51.782Z,440
2016-04-14T10:06:45.472Z,425
2016-04-14T10:07:32.913Z,395
2016-04-14T10:08:33.353Z,390
2016-04-14T10:09:45.606Z,385
2016-04-14T10:10:45.484Z,355
2016-04-14T10:11:52.017Z,335
2016-04-14T10:12:58.428Z,335
2016-04-14T10:13:58.447Z,320
2016-04-14T10:15:04.121Z,305
2016-04-14T10:16:04.139Z,300
2016-04-14T10:17:00.080Z,295
2016-04-14T10:17:32.861Z,295
2016-04-14T10:19:35.617Z,315
2016-04-14T10:20:13.853Z,320
2016-04-14T10:20:48.228Z,340
2016-04-14T10:22:19.546Z,355
2016-04-14T10:22:49.671Z,355
2016-04-14T10:23:48.221Z,355
2016-04-14T10:24:51.349Z,360
2016-04-14T10:25:49.773Z,365
2016-04-14T10:27:07.918Z,360
2016-04-14T10:27:51.449Z,360
2016-04-14T10:29:14.284Z,370
2016-04-14T10:30:01.271Z,365
2016-04-14T10:31:19.743Z,370
2016-04-14T10:32:01.448Z,380
2016-04-14T10:32:48.510Z,385
2016-04-14T10:33:48.545Z,400
2016-04-14T10:35:01.300Z,410
2016-04-14T10:35:54.893Z,415
2016-04-14T10:37:07.837Z,405
2016-04-14T10:37:49.118Z,395
2016-04-14T10:39:14.343Z,390
2016-04-14T10:39:48.640Z,390
2016-04-14T10:40:48.704Z,385
2016-04-14T10:41:48.738Z,380
2016-04-14T10:42:48.772Z,380
2016-04-14T10:43:48.759Z,375
2016-04-14T10:44:55.058Z,375
2016-04-14T10:45:49.531Z,365
2016-04-14T10:47:01.645Z,360
2016-04-14T10:47:50.317Z,360
2016-04-14T10:49:45.853Z,355
2016-04-14T10:49:58.434Z,350
2016-04-14T10:51:04.968Z,350
2016-04-14T10:52:05.158Z,345
2016-04-14T10:52:59.973Z,340
2016-04-14T10:54:05.366Z,345
2016-04-14T10:55:11.416Z,345
2016-04-14T10:56:11.403Z,350
2016-04-14T10:56:58.625Z,360
2016-04-14T10:58:11.408Z,375
2016-04-14T10:58:59.255Z,390
2016-04-14T11:00:17.851Z,420
2016-04-14T11:00:58.698Z,410
2016-04-14T11:01:58.826Z,410
2016-04-14T11:03:11.454Z,405
2016-04-14T11:03:59.597Z,405
2016-04-14T11:05:24.710Z,365
2016-04-14T11:06:00.821Z,340
2016-04-14T11:07:30.152Z,315
2016-04-14T11:08:18.170Z,320
2016-04-14T11:08:58.907Z,335
2016-04-14T11:10:24.582Z,330
2016-04-14T11:10:59.537Z,330
2016-04-14T11:12:30.259Z,340
2016-04-14T11:12:59.105Z,340
2016-04-14T11:13:58.999Z,340
2016-04-14T11:14:58.908Z,345
2016-04-14T11:15:59.036Z,350
2016-04-14T11:16:59.131Z,350
2016-04-14T11:17:59.103Z,350
2016-04-14T11:19:05.309Z,335
2016-04-14T11:20:05.405Z,330
2016-04-14T11:22:02.285Z,320
2016-04-14T11:23:53.663Z,325
2016-04-14T11:24:09.260Z,325
2016-04-14T11:25:25.497Z,320
2016-04-14T11:26:06.297Z,320
2016-04-14T11:27:57.724Z,315
2016-04-14T11:28:13.443Z,315
2016-04-14T11:30:07.448Z,310
2016-04-14T11:30:20.010Z,305
2016-04-14T11:33:01.035Z,290
2016-04-14T11:33:35.253Z,285
2016-04-14T11:34:35.301Z,280
2016-04-14T11:35:41.804Z,280
2016-04-14T11:36:41.714Z,275
2016-04-14T11:37:35.372Z,275
2016-04-14T11:39:26.064Z,270
2016-04-14T11:39:41.783Z,270
2016-04-14T11:40:51.395Z,270
2016-04-14T11:41:51.461Z,270
2016-04-14T11:43:04.404Z,275
2016-04-14T11:43:38.764Z,275
2016-04-14T11:45:54.675Z,295
2016-04-14T11:47:57.871Z,285
2016-04-14T11:49:10.560Z,270
2016-04-14T11:49:57.657Z,265
2016-04-14T11:50:57.712Z,265
2016-04-14T11:51:58.496Z,260
2016-04-14T11:52:58.529Z,260
2016-04-14T11:54:10.766Z,260
2016-04-14T11:54:59.191Z,260
2016-04-14T11:56:17.225Z,260
2016-04-14T11:56:58.009Z,265
2016-04-14T11:58:54.995Z,275
2016-04-14T11:59:26.014Z,275
2016-04-14T12:00:07.689Z,285
2016-04-14T12:01:13.770Z,280
2016-04-14T12:02:09.038Z,280
2016-04-14T12:03:20.447Z,275
2016-04-14T12:04:10.731Z,270
2016-04-14T12:05:21.077Z,270
2016-04-14T12:06:07.736Z,275
2016-04-14T12:07:21.114Z,270
2016-04-14T12:08:14.053Z,265
2016-04-14T12:09:20.556Z,265
2016-04-14T12:10:07.824Z,265
2016-04-14T12:12:06.252Z,275
2016-04-14T12:12:19.049Z,275
2016-04-14T12:13:18.880Z,280
2016-04-14T12:14:31.601Z,280
2016-04-14T12:15:20.322Z,280
2016-04-14T12:16:38.122Z,280
2016-04-14T12:17:18.922Z,290
2016-04-14T12:18:44.660Z,285
2016-04-14T12:19:19.615Z,280
2016-04-14T12:20:50.336Z,270
2016-04-14T12:21:19.635Z,270
2016-04-14T12:22:19.076Z,265
2016-04-14T12:23:31.985Z,260
2016-04-14T12:24:19.721Z,260
2016-04-14T12:25:19.209Z,265
2016-04-14T12:26:19.196Z,260
2016-04-14T12:27:19.823Z,260
2016-04-14T12:28:25.468Z,260
2016-04-14T12:29:31.360Z,255
2016-04-14T12:30:31.957Z,255
2016-04-14T12:31:19.272Z,250
2016-04-14T12:32:19.540Z,255
2016-04-14T12:33:32.043Z,240
2016-04-14T12:34:25.592Z,235
2016-04-14T12:35:45.064Z,245
2016-04-14T12:36:32.285Z,245
2016-04-14T12:37:50.710Z,240
2016-04-14T12:38:19.525Z,235
2016-04-14T12:39:19.481Z,245
2016-04-14T12:40:19.515Z,255
2016-04-14T12:41:19.783Z,260
2016-04-14T12:42:19.567Z,260
2016-04-14T12:43:19.569Z,260
2016-04-14T12:44:19.557Z,265
2016-04-14T12:45:19.622Z,265
2016-04-14T12:46:32.344Z,265
2016-04-14T12:47:19.691Z,260
2016-04-14T12:48:38.865Z,250
2016-04-14T12:49:19.696Z,255
2016-04-14T12:50:45.495Z,245
2016-04-14T12:51:25.998Z,235
2016-04-14T12:52:19.765Z,230
2016-04-14T12:53:39.034Z,220
2016-04-14T12:54:32.631Z,245
2016-04-14T12:55:45.493Z,245
2016-04-14T12:56:39.012Z,230
2016-04-14T12:57:45.765Z,230
2016-04-14T12:58:45.767Z,230
2016-04-14T12:59:51.238Z,240
2016-04-14T13:00:19.975Z,240
2016-04-14T13:01:19.978Z,240
2016-04-14T13:02:20.886Z,220
2016-04-14T13:03:21.451Z,210
2016-04-14T13:04:32.783Z,225
2016-04-14T13:05:20.050Z,215
2016-04-14T13:06:20.085Z,215
2016-04-14T13:07:20.244Z,235
2016-04-14T13:08:20.122Z,235
2016-04-14T13:09:20.908Z,235
2016-04-14T13:10:27.505Z,235
2016-04-14T13:11:20.378Z,235
2016-04-14T13:12:20.771Z,235
2016-04-14T13:13:20.258Z,230
2016-04-14T13:14:32.995Z,230
2016-04-14T13:15:20.904Z,225
2016-04-14T13:16:39.500Z,225
2016-04-14T13:17:33.066Z,225
2016-04-14T13:19:36.539Z,220
2016-04-14T13:20:21.824Z,220
2016-04-14T13:20:55.667Z,220
2016-04-14T13:23:08.394Z,210
2016-04-14T13:23:50.613Z,210
2016-04-14T13:25:14.884Z,215
2016-04-14T13:25:49.306Z,215
2016-04-14T13:27:14.952Z,215
2016-04-14T13:28:02.033Z,215
2016-04-14T13:30:04.491Z,210
2016-04-14T13:31:04.509Z,210
2016-04-14T13:32:04.575Z,210
2016-04-14T13:33:17.890Z,195
2016-04-14T13:34:10.862Z,195
2016-04-14T13:35:30.333Z,210
2016-04-14T13:36:17.382Z,210
2016-04-14T13:37:35.963Z,210
2016-04-14T13:38:18.012Z,210
2016-04-14T13:39:36.000Z,210
2016-04-14T13:41:07.943Z,210
2016-04-14T13:42:20.712Z,210
2016-04-14T13:43:09.401Z,205
2016-04-14T13:44:27.217Z,190
2016-04-14T13:45:07.891Z,185
2016-04-14T13:46:08.034Z,195
2016-04-14T13:47:20.817Z,210
2016-04-14T13:48:21.680Z,210
2016-04-14T13:49:27.448Z,210
2016-04-14T13:50:27.373Z,195
2016-04-14T13:51:39.486Z,190
2016-04-14T13:52:33.878Z,200
2016-04-14T13:53:33.928Z,200
2016-04-14T13:55:42.136Z,205
2016-04-14T13:56:13.920Z,195
2016-04-14T13:57:20.469Z,190
2016-04-14T13:57:54.969Z,205
2016-04-14T13:59:57.447Z,210
2016-04-14T14:00:35.713Z,205
2016-04-14T14:01:10.027Z,200
2016-04-14T14:03:08.470Z,210
2016-04-14T14:03:21.064Z,205
2016-04-14T14:04:24.098Z,210
2016-04-14T14:05:34.116Z,210
2016-04-14T14:06:22.307Z,210
2016-04-14T14:08:18.094Z,210
2016-04-14T14:08:56.360Z,210
2016-04-14T14:11:36.632Z,210
2016-04-14T14:12:05.089Z,210
2016-04-14T14:13:05.122Z,210
2016-04-14T14:14:17.875Z,210
2016-04-14T14:15:18.003Z,210
2016-04-14T14:16:24.396Z,210
2016-04-14T14:18:02.183Z,210
2016-04-14T14:18:33.761Z,210
2016-04-14T14:19:14.805Z,195
2016-04-14T14:21:12.505Z,210
2016-04-14T14:21:44.302Z,210
2016-04-14T14:22:37.879Z,210
2016-04-14T14:25:06.731Z,210
2016-04-14T14:27:47.079Z,210
2016-04-14T14:28:15.878Z,215
2016-04-14T14:29:15.910Z,210
2016-04-14T14:30:15.887Z,200
2016-04-14T14:31:28.879Z,200
2016-04-14T14:32:15.950Z,205
2016-04-14T14:33:41.974Z,210
2016-04-14T14:34:19.028Z,210
2016-04-14T14:35:16.110Z,210
2016-04-14T14:36:22.318Z,210
2016-04-14T14:37:28.697Z,210
2016-04-14T14:38:28.733Z,205
2016-04-14T14:39:16.097Z,210
2016-04-14T14:41:44.729Z,215
2016-04-14T14:43:54.970Z,210
2016-04-14T14:46:03.839Z,210
2016-04-14T14:46:48.339Z,210
2016-04-14T14:47:32.592Z,210
2016-04-14T14:49:42.332Z,195
2016-04-14T14:50:26.241Z,195
2016-04-14T14:51:26.915Z,195
2016-04-14T14:51:54.931Z,195
2016-04-14T14:53:52.609Z,195
2016-04-14T14:54:05.768Z,190
2016-04-14T14:56:02.414Z,190
2016-04-14T14:56:14.851Z,190
2016-04-14T14:57:59.935Z,190
2016-04-14T14:58:15.279Z,190